Thunder radar more information blitzortung!


Radar de pluja more information rain snow radar


Visita la nostra xarxa de llocs de meteo:

Template documentation
and downloads

And another site



No particular awareness of the weather is required.    There are no Weather-warnings

Pagina Historial Weather Underground text

Diari Resum Juliol 15, 2017 Unitats:  Imperial    Mètric   Tant
« Previous Dia
SegĂźent Dia »
Diari Setmana Mensual Anual Personalitzada
  Maxima: Minima: Media:
Temperatura: TemperatureC °F 24.2 °F 29.9 °F
Punt de rosada: DewpointC °F 17.4 °F 18.5 °F
Humitat: Humidity % 40 % 51 %
Wind Speed: WindSpeedKMH mph 3.7 mph 9.3 mph
RĂ fegues de vent: WindSpeedGustKMH mph - -
Vent:- - SSW
Pression baro: PressurehPa in 1013.8 in -
Precipitacions: 0.0 in    
Historical Graphs
 
 
Dades de taula per Juliol 15, 2017
Temps Temperatura Punt de rosada Pression baro Vent Wind Speed RĂ fegues de vent Humitat Rainfall Rate (Hourly)
TemperatureC °F DewpointC °F PressurehPa in Calm     Humidity % HourlyPrecipMM in
00:04 24.5 °F 19.3 °F 1017.8 in WSW 3.7 mph 3.7 mph 73 % 0.0 in
10:32 26.9 °F 20.3 °F 1017.8 in West 3.7 mph 4.3 mph 67 % 0.0 in
10:37 26.9 °F 20.0 °F 1018.8 in ESE 5.6 mph 5.6 mph 66 % 0.0 in
10:42 26.9 °F 20.0 °F 1018.8 in ENE 5.6 mph 5.6 mph 66 % 0.0 in
10:47 27.4 °F 20.2 °F 1018.8 in SSE 4.7 mph 4.7 mph 65 % 0.0 in
10:52 27.6 °F 20.2 °F 1017.8 in ESE 5.6 mph 5.6 mph 64 % 0.0 in
10:57 27.8 °F 20.4 °F 1017.8 in South 3.9 mph 3.9 mph 64 % 0.0 in
10:58 27.8 °F 20.4 °F 1017.8 in South 3.9 mph 3.9 mph 64 % 0.0 in
11:03 28.4 °F 20.7 °F 1017.8 in South 5.6 mph 5.6 mph 63 % 0.0 in
11:08 28.7 °F 20.7 °F 1017.8 in SSE 6.1 mph 6.1 mph 62 % 0.0 in
11:13 28.5 °F 20.0 °F 1017.8 in SW 9.3 mph 9.3 mph 60 % 0.0 in
11:18 29.2 °F 20.4 °F 1017.8 in SW 10.3 mph 10.3 mph 59 % 0.0 in
11:23 29.4 °F 19.7 °F 1017.8 in SE 10.0 mph 10.0 mph 56 % 0.0 in
11:28 29.7 °F 19.7 °F 1017.8 in SE 7.4 mph 7.4 mph 55 % 0.0 in
11:33 29.9 °F 19.6 °F 1017.8 in SSE 5.6 mph 5.6 mph 54 % 0.0 in
11:38 30.3 °F 19.9 °F 1016.8 in East 5.6 mph 5.6 mph 54 % 0.0 in
11:43 30.6 °F 20.2 °F 1016.8 in SW 3.9 mph 3.9 mph 54 % 0.0 in
11:48 30.9 °F 20.5 °F 1016.8 in SW 6.9 mph 6.9 mph 54 % 0.0 in
11:53 30.6 °F 19.6 °F 1015.8 in SW 9.3 mph 9.3 mph 52 % 0.0 in
11:58 31.0 °F 19.3 °F 1015.8 in SW 6.9 mph 6.9 mph 50 % 0.0 in
12:00 31.1 °F 19.4 °F 1015.8 in SW 9.3 mph 9.3 mph 50 % 0.0 in
12:05 31.3 °F 19.6 °F 1015.8 in WSW 9.7 mph 9.7 mph 50 % 0.0 in
12:10 31.5 °F 19.5 °F 1015.8 in SSE 5.6 mph 5.6 mph 49 % 0.0 in
12:15 32.1 °F 19.0 °F 1015.8 in South 5.8 mph 5.8 mph 46 % 0.0 in
12:20 32.1 °F 19.4 °F 1015.8 in SSW 5.6 mph 5.6 mph 47 % 0.0 in
12:25 32.1 °F 19.7 °F 1015.8 in SSW 9.3 mph 9.3 mph 48 % 0.0 in
12:30 31.8 °F 19.4 °F 1015.8 in SSW 7.4 mph 7.4 mph 48 % 0.0 in
12:35 32.0 °F 19.3 °F 1015.8 in NNW 5.6 mph 5.6 mph 47 % 0.0 in
12:40 31.8 °F 18.8 °F 1015.8 in SSW 11.1 mph 11.1 mph 46 % 0.0 in
12:45 31.6 °F 18.6 °F 1015.8 in WNW 7.4 mph 7.4 mph 46 % 0.0 in
12:50 32.2 °F 18.8 °F 1015.8 in SSW 5.6 mph 5.6 mph 45 % 0.0 in
12:55 32.8 °F 19.3 °F 1014.8 in WSW 5.8 mph 5.8 mph 45 % 0.0 in
13:00 32.7 °F 19.2 °F 1014.8 in South 13.0 mph 13.0 mph 45 % 0.0 in
13:05 32.3 °F 18.8 °F 1014.8 in SE 5.6 mph 5.6 mph 45 % 0.0 in
13:10 33.0 °F 19.1 °F 1015.8 in South 7.4 mph 7.4 mph 44 % 0.0 in
13:15 32.1 °F 18.7 °F 1015.8 in West 10.3 mph 10.3 mph 45 % 0.0 in
13:20 32.1 °F 18.3 °F 1015.8 in WNW 7.4 mph 7.4 mph 44 % 0.0 in
13:25 32.6 °F 18.8 °F 1015.8 in SW 7.4 mph 7.4 mph 44 % 0.0 in
13:30 32.8 °F 18.9 °F 1015.8 in SSW 4.2 mph 4.2 mph 44 % 0.0 in
13:35 32.7 °F 19.2 °F 1015.8 in SSW 7.4 mph 7.4 mph 45 % 0.0 in
13:40 32.8 °F 19.3 °F 1015.8 in SW 7.4 mph 7.4 mph 45 % 0.0 in
13:41 33.0 °F 19.1 °F 1015.8 in East 3.7 mph 3.7 mph 44 % 0.0 in
13:46 33.4 °F 19.1 °F 1015.8 in ENE 9.3 mph 9.3 mph 43 % 0.0 in
13:51 33.0 °F 19.1 °F 1015.8 in ESE 5.6 mph 5.6 mph 44 % 0.0 in
13:56 32.9 °F 19.4 °F 1015.8 in WSW 13.0 mph 13.0 mph 45 % 0.0 in
14:01 32.2 °F 18.8 °F 1015.8 in South 9.3 mph 9.3 mph 45 % 0.0 in
14:06 32.2 °F 18.8 °F 1015.8 in SSE 9.3 mph 9.3 mph 45 % 0.0 in
14:11 32.6 °F 19.5 °F 1014.8 in SW 6.9 mph 6.9 mph 46 % 0.0 in
14:16 33.0 °F 19.8 °F 1014.8 in SW 9.3 mph 9.3 mph 46 % 0.0 in
14:21 32.4 °F 19.3 °F 1014.8 in SW 7.4 mph 7.4 mph 46 % 0.0 in
14:26 32.6 °F 19.5 °F 1014.8 in WSW 14.8 mph 14.8 mph 46 % 0.0 in
14:31 32.7 °F 19.6 °F 1014.8 in SW 11.1 mph 11.1 mph 46 % 0.0 in
14:36 33.1 °F 19.6 °F 1014.8 in SSE 13.0 mph 13.0 mph 45 % 0.0 in
14:41 33.4 °F 19.8 °F 1014.8 in WSW 3.9 mph 4.2 mph 45 % 0.0 in
14:46 33.7 °F 20.1 °F 1014.8 in SW 10.3 mph 10.3 mph 45 % 0.0 in
14:51 33.6 °F 19.7 °F 1014.8 in SW 18.5 mph 18.5 mph 44 % 0.0 in
14:56 33.5 °F 19.6 °F 1014.8 in SSW 10.0 mph 10.0 mph 44 % 0.0 in
15:01 33.4 °F 19.5 °F 1014.8 in WSW 5.0 mph 5.0 mph 44 % 0.0 in
15:06 33.4 °F 19.5 °F 1014.8 in SW 16.7 mph 16.7 mph 44 % 0.0 in
15:11 33.5 °F 19.2 °F 1014.8 in South 7.4 mph 7.4 mph 43 % 0.0 in
15:16 34.0 °F 19.7 °F 1014.8 in West 5.6 mph 5.6 mph 43 % 0.0 in
15:21 34.3 °F 19.9 °F 1014.8 in SW 5.6 mph 5.6 mph 43 % 0.0 in
15:26 34.3 °F 19.9 °F 1015.8 in WSW 13.0 mph 13.0 mph 43 % 0.0 in
15:31 34.1 °F 19.4 °F 1015.8 in SSW 5.6 mph 6.1 mph 42 % 0.0 in
15:36 34.4 °F 19.6 °F 1015.8 in SSW 11.1 mph 11.1 mph 42 % 0.0 in
15:41 34.2 °F 19.4 °F 1015.8 in SE 5.6 mph 5.6 mph 42 % 0.0 in
15:46 33.9 °F 19.2 °F 1015.8 in SSW 7.4 mph 7.4 mph 42 % 0.0 in
15:51 34.1 °F 19.4 °F 1015.8 in South 15.6 mph 15.6 mph 42 % 0.0 in
15:56 33.8 °F 19.1 °F 1015.8 in South 11.1 mph 11.1 mph 42 % 0.0 in
16:01 34.1 °F 19.4 °F 1015.8 in WNW 4.7 mph 4.7 mph 42 % 0.0 in
16:06 34.5 °F 19.7 °F 1015.8 in WSW 5.6 mph 5.6 mph 42 % 0.0 in
16:11 34.6 °F 19.4 °F 1014.8 in SW 9.3 mph 9.3 mph 41 % 0.0 in
16:16 34.3 °F 19.2 °F 1014.8 in SW 14.8 mph 14.8 mph 41 % 0.0 in
16:21 34.1 °F 19.0 °F 1014.8 in SW 14.8 mph 14.8 mph 41 % 0.0 in
16:26 33.8 °F 18.3 °F 1014.8 in South 14.8 mph 14.8 mph 40 % 0.0 in
16:31 33.4 °F 17.9 °F 1014.8 in WSW 13.0 mph 13.0 mph 40 % 0.0 in
16:36 33.1 °F 17.7 °F 1014.8 in SSW 11.1 mph 11.1 mph 40 % 0.0 in
16:41 33.2 °F 17.8 °F 1014.8 in WSW 13.0 mph 13.0 mph 40 % 0.0 in
16:46 33.3 °F 17.9 °F 1014.8 in SSW 14.8 mph 14.8 mph 40 % 0.0 in
16:51 33.8 °F 18.7 °F 1014.8 in SW 13.0 mph 13.0 mph 41 % 0.0 in
16:56 32.7 °F 17.7 °F 1014.8 in West 16.7 mph 16.7 mph 41 % 0.0 in
17:01 33.0 °F 18.0 °F 1014.8 in SSW 11.1 mph 11.1 mph 41 % 0.0 in
17:06 33.2 °F 18.2 °F 1014.8 in SW 7.4 mph 7.4 mph 41 % 0.0 in
17:11 32.6 °F 17.6 °F 1014.8 in West 13.0 mph 13.0 mph 41 % 0.0 in
17:12 32.8 °F 18.2 °F 1014.8 in SSW 9.3 mph 9.3 mph 42 % 0.0 in
17:17 33.1 °F 18.1 °F 1014.8 in SSW 13.0 mph 13.0 mph 41 % 0.0 in
17:22 32.7 °F 18.1 °F 1014.8 in WSW 11.1 mph 11.1 mph 42 % 0.0 in
17:27 32.6 °F 18.0 °F 1014.8 in South 11.1 mph 11.1 mph 42 % 0.0 in
17:32 32.8 °F 18.2 °F 1014.8 in SSE 18.5 mph 18.5 mph 42 % 0.0 in
17:37 32.2 °F 17.7 °F 1014.8 in SE 9.3 mph 9.3 mph 42 % 0.0 in
17:42 32.2 °F 17.7 °F 1014.8 in South 13.0 mph 13.0 mph 42 % 0.0 in
17:47 31.8 °F 17.7 °F 1014.8 in WSW 9.3 mph 9.3 mph 43 % 0.0 in
17:52 32.2 °F 18.1 °F 1014.8 in SW 13.0 mph 13.0 mph 43 % 0.0 in
17:57 31.9 °F 17.8 °F 1014.8 in WSW 9.3 mph 9.3 mph 43 % 0.0 in
18:02 32.2 °F 18.1 °F 1014.8 in West 11.1 mph 11.1 mph 43 % 0.0 in
18:07 32.0 °F 17.8 °F 1014.8 in SW 20.4 mph 20.4 mph 43 % 0.0 in
18:12 31.7 °F 17.6 °F 1014.8 in SW 13.0 mph 13.0 mph 43 % 0.0 in
18:17 31.3 °F 17.6 °F 1014.8 in WSW 16.7 mph 16.7 mph 44 % 0.0 in
18:22 30.9 °F 17.6 °F 1014.8 in South 16.7 mph 16.7 mph 45 % 0.0 in
18:27 30.9 °F 17.6 °F 1014.8 in SSW 14.8 mph 14.8 mph 45 % 0.0 in
18:32 30.8 °F 17.5 °F 1014.8 in SW 22.2 mph 22.2 mph 45 % 0.0 in
18:37 30.8 °F 17.5 °F 1013.8 in SW 18.5 mph 18.5 mph 45 % 0.0 in
18:42 30.7 °F 17.4 °F 1013.8 in SW 14.8 mph 14.8 mph 45 % 0.0 in
18:47 30.3 °F 17.4 °F 1013.8 in South 18.5 mph 18.5 mph 46 % 0.0 in
18:52 30.4 °F 17.5 °F 1013.8 in SW 11.1 mph 11.1 mph 46 % 0.0 in
18:57 30.3 °F 17.7 °F 1013.8 in North 12.6 mph 12.6 mph 47 % 0.0 in
19:02 30.5 °F 17.9 °F 1013.8 in West 13.0 mph 13.0 mph 47 % 0.0 in
19:07 30.4 °F 17.8 °F 1014.8 in SW 9.3 mph 9.3 mph 47 % 0.0 in
19:12 30.2 °F 18.0 °F 1014.8 in SW 15.6 mph 15.6 mph 48 % 0.0 in
19:17 30.3 °F 18.1 °F 1014.8 in SW 13.0 mph 13.0 mph 48 % 0.0 in
19:22 29.9 °F 17.7 °F 1013.8 in WSW 9.3 mph 9.3 mph 48 % 0.0 in
19:25 29.8 °F 17.9 °F 1013.8 in WSW 14.8 mph 14.8 mph 49 % 0.0 in
19:30 29.4 °F 17.6 °F 1013.8 in South 16.7 mph 16.7 mph 49 % 0.0 in
19:35 29.3 °F 17.8 °F 1013.8 in SW 15.8 mph 15.8 mph 50 % 0.0 in
19:40 29.0 °F 17.5 °F 1014.8 in WSW 20.4 mph 20.4 mph 50 % 0.0 in
19:45 28.9 °F 18.1 °F 1014.8 in WSW 13.0 mph 13.0 mph 52 % 0.0 in
19:50 28.9 °F 18.1 °F 1014.8 in SW 11.1 mph 11.1 mph 52 % 0.0 in
19:55 28.8 °F 17.9 °F 1014.8 in SW 9.3 mph 9.3 mph 52 % 0.0 in
20:00 28.6 °F 17.8 °F 1014.8 in SSW 9.3 mph 9.3 mph 52 % 0.0 in
20:05 28.5 °F 18.0 °F 1014.8 in WSW 12.2 mph 12.2 mph 53 % 0.0 in
20:10 28.2 °F 17.7 °F 1014.8 in South 9.3 mph 9.3 mph 53 % 0.0 in
20:15 28.3 °F 17.8 °F 1014.8 in WSW 3.7 mph 3.9 mph 53 % 0.0 in
20:20 28.3 °F 17.8 °F 1014.8 in SW 9.7 mph 9.7 mph 53 % 0.0 in
20:25 28.0 °F 17.8 °F 1014.8 in SW 14.8 mph 14.8 mph 54 % 0.0 in
20:30 27.9 °F 17.7 °F 1014.8 in SSW 9.0 mph 9.0 mph 54 % 0.0 in
20:35 27.8 °F 17.9 °F 1014.8 in WSW 9.3 mph 9.3 mph 55 % 0.0 in
20:40 27.7 °F 17.8 °F 1015.8 in SSW 11.1 mph 11.1 mph 55 % 0.0 in
20:45 27.5 °F 17.7 °F 1015.8 in SSW 11.1 mph 11.1 mph 55 % 0.0 in
20:50 27.4 °F 17.8 °F 1015.8 in South 11.1 mph 11.1 mph 56 % 0.0 in
20:55 27.2 °F 17.9 °F 1015.8 in SW 13.0 mph 13.0 mph 57 % 0.0 in
21:00 27.1 °F 17.8 °F 1015.8 in WSW 13.0 mph 13.0 mph 57 % 0.0 in
21:05 26.9 °F 17.9 °F 1015.8 in SW 11.1 mph 11.1 mph 58 % 0.0 in
21:10 26.8 °F 18.1 °F 1015.8 in SSE 9.0 mph 9.0 mph 59 % 0.0 in
21:15 26.6 °F 17.9 °F 1015.8 in SSW 11.1 mph 11.1 mph 59 % 0.0 in
21:20 26.6 °F 18.2 °F 1015.8 in SSW 5.3 mph 5.3 mph 60 % 0.0 in
21:25 26.4 °F 18.0 °F 1015.8 in SSW 7.4 mph 7.4 mph 60 % 0.0 in
21:30 26.3 °F 17.9 °F 1015.8 in SW 13.0 mph 13.0 mph 60 % 0.0 in
21:35 26.2 °F 18.1 °F 1015.8 in SW 9.3 mph 9.3 mph 61 % 0.0 in
21:40 26.1 °F 18.0 °F 1015.8 in WSW 11.1 mph 11.1 mph 61 % 0.0 in
21:45 26.0 °F 17.9 °F 1015.8 in South 7.4 mph 7.4 mph 61 % 0.0 in
21:50 25.9 °F 18.1 °F 1015.8 in WSW 5.6 mph 5.6 mph 62 % 0.0 in
21:55 25.9 °F 17.8 °F 1014.8 in SW 7.4 mph 7.4 mph 61 % 0.0 in
22:00 25.8 °F 17.7 °F 1014.8 in SW 8.7 mph 8.7 mph 61 % 0.0 in
22:05 25.7 °F 17.9 °F 1014.8 in SW 6.4 mph 6.4 mph 62 % 0.0 in
22:10 25.6 °F 17.8 °F 1015.8 in SW 5.6 mph 5.6 mph 62 % 0.0 in
22:15 25.5 °F 17.7 °F 1015.8 in WSW 5.6 mph 5.6 mph 62 % 0.0 in
22:20 25.5 °F 17.7 °F 1015.8 in SW 5.6 mph 5.6 mph 62 % 0.0 in
22:25 25.4 °F 17.8 °F 1015.8 in WSW 5.6 mph 5.6 mph 63 % 0.0 in
22:30 25.3 °F 17.7 °F 1015.8 in SSW 3.7 mph 3.7 mph 63 % 0.0 in
22:35 25.3 °F 17.7 °F 1015.8 in West 3.7 mph 3.7 mph 63 % 0.0 in
22:40 25.2 °F 17.9 °F 1015.8 in WSW 5.6 mph 5.6 mph 64 % 0.0 in
22:45 25.1 °F 17.8 °F 1015.8 in WSW 5.6 mph 5.6 mph 64 % 0.0 in
22:50 25.0 °F 17.7 °F 1015.8 in WSW 6.4 mph 6.4 mph 64 % 0.0 in
22:55 24.9 °F 18.1 °F 1015.8 in SW 4.7 mph 4.7 mph 66 % 0.0 in
23:00 24.9 °F 18.1 °F 1015.8 in WSW 5.3 mph 5.3 mph 66 % 0.0 in
23:05 24.9 °F 18.1 °F 1015.8 in West 3.7 mph 3.7 mph 66 % 0.0 in
23:10 24.8 °F 18.0 °F 1015.8 in West 3.7 mph 3.7 mph 66 % 0.0 in
23:15 24.8 °F 18.3 °F 1015.8 in WSW 3.9 mph 3.9 mph 67 % 0.0 in
23:20 24.7 °F 18.2 °F 1015.8 in SW 5.6 mph 5.6 mph 67 % 0.0 in
23:25 24.6 °F 18.1 °F 1016.8 in SW 5.6 mph 5.6 mph 67 % 0.0 in
23:30 24.5 °F 18.2 °F 1016.8 in SW 7.4 mph 7.4 mph 68 % 0.0 in
23:35 24.4 °F 18.1 °F 1016.8 in SW 5.6 mph 5.6 mph 68 % 0.0 in
23:40 24.4 °F 18.3 °F 1016.8 in SSW 5.3 mph 5.3 mph 69 % 0.0 in
23:45 24.3 °F 18.2 °F 1016.8 in SW 5.6 mph 5.6 mph 69 % 0.0 in
23:50 24.3 °F 18.2 °F 1016.8 in SW 5.6 mph 5.6 mph 69 % 0.0 in
23:55 24.2 °F 18.4 °F 1016.8 in WSW 7.4 mph 7.4 mph 70 % 0.0 in
Meteo Sesrovires
Elogis d' Weather Underground - 1.5 mb

Guio original per  Jim McMurry - jmcmurry@mwt.net Adaptat per a la plantilla per  Wim van der Kuil - Leuven-Template.eu

Trobareu la nostra informacio del temps tambe a:

Weather Underground

AWEKAS